Time;durP1;ratioP1;P1;durP2;ratioP2;P2;SDS_P1;SDS_P2;PMS_P1;PMS_P2;Temp;Humidity;BMP_temperature;BMP_pressure;BME280_temperature;BME280_humidity;BME280_pressure;Samples;Min_cycle;Max_cycle;Signal;HPM_P1;HPM_P2
2022/02/07 00:00:07;;;;;;;22.10;10.57;;;1.20;99.90;;;;;;5017303;28;20101;-90
2022/02/07 00:03:02;;;;;;;17.60;8.85;;;1.10;99.90;;;;;;5016521;28;20436;-90
2022/02/07 00:05:26;;;;;;;15.23;8.82;;;1.10;99.90;;;;;;5017188;28;20042;-90
2022/02/07 00:07:53;;;;;;;15.15;8.85;;;1.00;99.90;;;;;;5016071;28;20034;-91
2022/02/07 00:10:20;;;;;;;16.70;8.00;;;1.00;99.90;;;;;;5016741;28;20036;-90
2022/02/07 00:12:49;;;;;;;15.98;8.20;;;1.00;99.90;;;;;;5015969;28;20034;-90
2022/02/07 00:15:16;;;;;;;14.55;8.98;;;0.90;99.90;;;;;;5016799;28;20457;-90
2022/02/07 00:17:43;;;;;;;20.13;9.30;;;0.80;99.90;;;;;;5015895;28;20041;-90
2022/02/07 00:20:21;;;;;;;16.23;8.18;;;0.80;99.90;;;;;;4999848;28;20034;-91
2022/02/07 00:22:48;;;;;;;14.55;8.38;;;0.80;99.90;;;;;;5016881;28;20483;-91
2022/02/07 00:25:21;;;;;;;17.85;8.82;;;0.70;99.90;;;;;;5016245;28;20046;-90
2022/02/07 00:27:48;;;;;;;16.25;9.00;;;0.60;99.90;;;;;;5016069;28;20053;-91
2022/02/07 00:30:16;;;;;;;14.00;7.75;;;0.60;99.90;;;;;;5016425;28;20026;-90
2022/02/07 00:32:43;;;;;;;24.17;12.10;;;0.50;99.90;;;;;;5016271;28;20029;-90
2022/02/07 00:35:16;;;;;;;18.52;10.95;;;0.50;99.90;;;;;;5015696;28;20511;-91
2022/02/07 00:37:48;;;;;;;21.05;12.38;;;0.40;99.90;;;;;;5016947;28;20146;-91
2022/02/07 00:40:31;;;;;;;19.50;11.02;;;0.40;99.90;;;;;;5016492;28;20516;-89
2022/02/07 00:43:28;;;;;;;17.38;9.75;;;0.40;99.90;;;;;;5016125;28;20034;-91
2022/02/07 00:46:04;;;;;;;16.35;10.02;;;0.40;99.90;;;;;;5003835;28;20033;-89
2022/02/07 00:48:30;;;;;;;17.38;9.68;;;0.40;99.90;;;;;;5016643;28;20030;-90
2022/02/07 00:51:01;;;;;;;17.75;9.00;;;0.40;99.90;;;;;;5016811;28;20041;-90
2022/02/07 00:53:27;;;;;;;15.57;8.07;;;0.40;99.90;;;;;;5017038;28;20084;-90
2022/02/07 00:55:56;;;;;;;15.90;8.48;;;0.40;99.90;;;;;;5015703;28;20029;-90
2022/02/07 00:58:22;;;;;;;16.58;10.02;;;0.40;99.90;;;;;;5015834;28;20026;-90
2022/02/07 01:00:52;;;;;;;18.60;11.10;;;0.40;99.90;;;;;;5015813;28;20112;-90
2022/02/07 01:03:18;;;;;;;17.63;10.05;;;0.40;99.90;;;;;;5015861;28;20038;-90
2022/02/07 01:05:47;;;;;;;19.63;9.70;;;0.40;99.90;;;;;;5016203;28;20515;-92
2022/02/07 01:08:19;;;;;;;18.92;10.40;;;0.40;99.90;;;;;;5015447;28;20034;-90
2022/02/07 01:10:57;;;;;;;23.25;10.90;;;0.40;99.90;;;;;;5015742;28;20089;-90
2022/02/07 01:55:09;;;;;;;19.70;11.07;;;0.00;99.90;;;;;;5015669;28;20025;-90
2022/02/07 01:57:35;;;;;;;26.20;13.77;;;0.00;99.90;;;;;;5015232;28;20036;-90
2022/02/07 02:00:13;;;;;;;27.35;14.60;;;0.10;99.90;;;;;;5015798;28;20084;-90
2022/02/07 02:02:39;;;;;;;29.93;15.40;;;0.10;99.90;;;;;;5014324;28;20056;-90
2022/02/07 02:05:05;;;;;;;24.48;13.45;;;0.20;99.90;;;;;;5014252;28;20026;-91
2022/02/07 02:07:31;;;;;;;26.92;13.45;;;0.20;99.90;;;;;;5014602;28;20034;-90
2022/02/07 02:09:59;;;;;;;24.23;12.43;;;0.30;99.90;;;;;;5015118;28;20071;-90
2022/02/07 02:12:28;;;;;;;22.27;11.30;;;0.30;99.90;;;;;;5014418;28;20025;-90
2022/02/07 02:32:35;;;;;;;23.23;12.88;;;0.40;99.90;;;;;;5015282;28;20072;-91
2022/02/07 02:36:35;;;;;;;27.15;14.98;;;0.50;99.90;;;;;;5015220;28;20022;-89
2022/02/07 02:47:06;;;;;;;28.08;14.88;;;0.40;99.90;;;;;;5015017;28;20385;-91
2022/02/07 02:49:43;;;;;;;26.73;14.27;;;0.40;99.90;;;;;;5014558;28;20026;-89
2022/02/07 02:52:09;;;;;;;23.48;12.32;;;0.40;99.90;;;;;;5013869;28;20030;-90
2022/02/07 02:54:35;;;;;;;20.92;12.13;;;0.40;99.90;;;;;;5013272;28;20029;-91
2022/02/07 02:57:03;;;;;;;25.15;13.05;;;0.40;99.90;;;;;;5013139;28;20084;-90
2022/02/07 02:59:29;;;;;;;20.92;11.98;;;0.40;99.90;;;;;;5013755;28;20092;-90
2022/02/07 03:01:55;;;;;;;22.23;12.55;;;0.40;99.90;;;;;;5029927;28;20053;-90
2022/02/07 03:04:21;;;;;;;21.88;11.38;;;0.30;99.90;;;;;;5032855;28;20024;-90
2022/02/07 03:06:49;;;;;;;22.00;12.73;;;0.30;99.90;;;;;;5033944;28;20029;-90
2022/02/07 03:09:18;;;;;;;19.73;11.00;;;0.30;99.90;;;;;;5018029;28;20121;-90
2022/02/07 03:11:43;;;;;;;20.23;11.02;;;0.40;99.90;;;;;;5033064;28;20021;-90
2022/02/07 03:14:19;;;;;;;23.60;12.05;;;0.40;99.90;;;;;;5033042;28;20176;-89
2022/02/07 03:16:54;;;;;;;21.48;12.45;;;0.40;99.90;;;;;;5034437;28;20375;-90
2022/02/07 03:19:25;;;;;;;21.98;12.75;;;0.40;99.90;;;;;;5033950;28;20060;-90
2022/02/07 03:21:54;;;;;;;21.63;12.02;;;0.40;99.90;;;;;;5033712;28;20019;-90
2022/02/07 03:24:20;;;;;;;21.33;11.63;;;0.40;99.90;;;;;;5009771;28;20042;-89
2022/02/07 03:26:46;;;;;;;15.73;10.05;;;0.40;99.90;;;;;;4997084;28;20022;-90
2022/02/07 03:29:18;;;;;;;19.73;10.55;;;0.40;99.90;;;;;;5013505;28;20022;-90
2022/02/07 03:32:29;;;;;;;18.88;10.98;;;0.40;99.90;;;;;;4997292;28;20530;-90
2022/02/07 03:34:56;;;;;;;18.98;11.20;;;0.40;99.90;;;;;;5019895;28;20049;-89
2022/02/07 03:37:25;;;;;;;22.25;12.13;;;0.50;99.90;;;;;;5033477;28;20026;-90
2022/02/07 03:39:51;;;;;;;20.77;12.30;;;0.50;99.90;;;;;;5033075;28;20029;-90
2022/02/07 03:42:16;;;;;;;20.98;13.82;;;0.50;99.90;;;;;;5032655;28;20026;-89
2022/02/07 03:44:42;;;;;;;25.25;13.40;;;0.50;99.90;;;;;;5033016;28;20025;-90
2022/02/07 03:47:10;;;;;;;22.85;13.32;;;0.50;99.90;;;;;;5032494;28;20032;-89
2022/02/07 03:49:40;;;;;;;23.38;12.82;;;0.50;99.90;;;;;;5034205;28;20057;-91
2022/02/07 03:52:09;;;;;;;25.73;14.63;;;0.50;99.90;;;;;;5032837;28;20021;-90
2022/02/07 03:54:36;;;;;;;22.55;14.18;;;0.50;99.90;;;;;;5033716;28;20040;-89
2022/02/07 03:57:02;;;;;;;24.55;13.45;;;0.50;99.90;;;;;;5033213;28;20029;-90
2022/02/07 03:59:31;;;;;;;20.70;12.70;;;0.60;99.90;;;;;;5032382;28;20029;-90
2022/02/07 04:01:59;;;;;;;20.58;12.18;;;0.50;99.90;;;;;;5032431;28;20136;-91
2022/02/07 04:04:26;;;;;;;23.42;12.65;;;0.50;99.90;;;;;;5029553;28;20403;-89
2022/02/07 04:06:52;;;;;;;21.58;12.68;;;0.60;99.90;;;;;;5013095;28;20026;-91
2022/02/07 04:09:22;;;;;;;20.30;12.02;;;0.50;99.90;;;;;;5012953;28;20029;-90
2022/02/07 04:12:01;;;;;;;20.88;11.30;;;0.50;99.90;;;;;;5016866;28;20018;-90
2022/02/07 04:14:33;;;;;;;23.10;13.13;;;0.60;99.90;;;;;;5016319;28;20121;-90
2022/02/07 04:16:59;;;;;;;20.98;11.88;;;0.50;99.90;;;;;;5016831;28;20030;-89
2022/02/07 04:19:32;;;;;;;25.42;14.07;;;0.60;99.90;;;;;;5016372;28;20045;-90
2022/02/07 04:21:58;;;;;;;23.52;13.55;;;0.50;99.90;;;;;;5023785;28;20029;-90
2022/02/07 04:24:32;;;;;;;23.67;13.20;;;0.50;99.90;;;;;;5019890;28;20434;-90
2022/02/07 04:27:02;;;;;;;20.88;13.18;;;0.50;99.90;;;;;;5037512;28;20021;-90
2022/02/07 04:29:37;;;;;;;22.58;13.15;;;0.50;99.90;;;;;;5018948;28;20063;-90
2022/02/07 04:32:03;;;;;;;21.70;11.95;;;0.50;99.90;;;;;;5036745;28;20021;-91
2022/02/07 04:34:31;;;;;;;23.92;12.50;;;0.50;99.90;;;;;;5019604;28;20060;-90
2022/02/07 04:36:57;;;;;;;22.88;12.60;;;0.50;99.90;;;;;;5035775;28;20113;-91
2022/02/07 04:39:25;;;;;;;26.80;13.07;;;0.60;99.90;;;;;;5035359;28;20052;-90
2022/02/07 04:41:54;;;;;;;27.20;13.45;;;0.60;99.90;;;;;;5035811;28;20100;-90
2022/02/07 04:44:37;;;;;;;25.92;14.77;;;0.60;99.90;;;;;;5036593;28;20033;-91
2022/02/07 04:47:30;;;;;;;25.20;13.63;;;0.60;99.90;;;;;;5036164;28;20498;-90
2022/02/07 04:52:55;;;;;;;31.30;16.25;;;0.70;99.90;;;;;;5036688;28;20022;-90
2022/02/07 04:55:37;;;;;;;26.42;14.98;;;0.60;99.90;;;;;;4998124;28;20030;-90
2022/02/07 04:58:09;;;;;;;25.55;13.85;;;0.70;99.90;;;;;;5012675;28;20057;-90
2022/02/07 05:00:50;;;;;;;29.67;15.82;;;0.70;99.90;;;;;;5012472;28;20085;-90
2022/02/07 05:03:28;;;;;;;24.10;13.90;;;0.70;99.90;;;;;;5012439;28;20489;-90
2022/02/07 05:14:12;;;;;;;31.48;15.63;;;0.80;99.90;;;;;;4997131;28;20400;-90
2022/02/07 14:40:20;;;;;;;125.35;55.33;;;1.90;99.90;;;;;;5092152;28;20703;-88
2022/02/07 14:42:49;;;;;;;112.60;61.20;;;1.90;99.90;;;;;;5099785;28;20024;-88
2022/02/07 14:45:25;;;;;;;116.57;62.33;;;1.90;99.90;;;;;;5110680;28;20035;-89
2022/02/07 14:47:52;;;;;;;109.82;55.25;;;1.90;99.90;;;;;;5111821;28;20059;-88
2022/02/07 14:50:26;;;;;;;95.47;45.50;;;1.90;99.90;;;;;;5111001;28;20030;-89
2022/02/07 14:52:52;;;;;;;92.03;40.33;;;1.90;99.90;;;;;;5111588;28;20054;-88
2022/02/07 14:55:20;;;;;;;73.25;34.15;;;2.00;99.90;;;;;;5111251;28;20023;-88
2022/02/07 14:57:46;;;;;;;78.75;35.00;;;2.00;99.90;;;;;;5111363;28;20027;-89
2022/02/07 15:00:17;;;;;;;119.75;42.28;;;2.10;99.90;;;;;;5110605;28;20115;-89
2022/02/07 15:02:44;;;;;;;121.32;43.08;;;2.10;99.90;;;;;;5111220;28;20096;-89
2022/02/07 15:05:10;;;;;;;159.80;50.60;;;2.10;99.90;;;;;;5103116;28;20025;-88
2022/02/07 15:07:36;;;;;;;168.02;49.28;;;2.10;99.90;;;;;;5090685;28;20048;-88
2022/02/07 15:10:18;;;;;;;168.85;46.42;;;2.20;99.90;;;;;;5091605;28;20474;-89
2022/02/07 15:12:45;;;;;;;163.07;48.15;;;2.20;99.90;;;;;;5091342;28;20043;-88
2022/02/07 15:15:15;;;;;;;147.75;47.35;;;2.20;99.90;;;;;;5089866;28;20035;-88
2022/02/07 15:17:40;;;;;;;161.95;48.55;;;2.30;99.90;;;;;;5089806;28;20040;-88
2022/02/07 15:20:13;;;;;;;145.15;47.30;;;2.30;99.90;;;;;;5090608;28;20051;-88
2022/02/07 15:22:45;;;;;;;134.13;44.45;;;2.30;99.90;;;;;;5089918;28;20028;-88
2022/02/07 15:25:17;;;;;;;144.75;45.88;;;2.30;99.90;;;;;;5083839;28;20032;-88
2022/02/07 15:27:43;;;;;;;154.68;48.28;;;2.40;99.90;;;;;;5069570;28;20024;-88
2022/02/07 15:30:11;;;;;;;137.40;44.47;;;2.40;99.90;;;;;;5069840;28;20035;-88
2022/02/07 15:32:40;;;;;;;127.85;44.08;;;2.40;99.90;;;;;;5070383;28;20460;-88
2022/02/07 15:35:09;;;;;;;136.90;45.40;;;2.30;99.90;;;;;;5069687;28;20050;-88
2022/02/07 15:37:35;;;;;;;132.02;41.80;;;2.40;99.90;;;;;;5070653;28;20024;-88
2022/02/07 15:40:06;;;;;;;121.35;43.63;;;2.30;99.90;;;;;;5089447;28;20053;-88
2022/02/07 15:42:32;;;;;;;128.15;44.25;;;2.30;99.90;;;;;;5090136;28;20458;-88
2022/02/07 15:45:00;;;;;;;102.20;36.60;;;2.30;99.90;;;;;;5089740;28;20077;-88
2022/02/07 15:47:30;;;;;;;79.70;32.45;;;2.40;99.90;;;;;;5090365;28;20107;-89
2022/02/07 15:49:56;;;;;;;93.70;33.65;;;2.30;99.90;;;;;;5086481;28;20078;-89
2022/02/07 15:52:22;;;;;;;80.28;32.17;;;2.40;99.90;;;;;;5076217;28;20028;-88
2022/02/07 15:54:52;;;;;;;84.13;32.25;;;2.40;99.90;;;;;;5076259;28;20370;-89
2022/02/07 15:57:18;;;;;;;80.45;30.52;;;2.40;99.90;;;;;;5075741;28;20078;-88
2022/02/07 15:59:44;;;;;;;72.05;29.70;;;2.30;99.90;;;;;;5076242;28;20033;-87
2022/02/07 16:02:10;;;;;;;75.60;30.38;;;2.40;99.90;;;;;;5075658;28;20042;-88
2022/02/07 16:04:41;;;;;;;91.30;36.70;;;2.40;99.90;;;;;;5075479;28;20024;-88
2022/02/07 16:07:08;;;;;;;107.22;41.67;;;2.30;99.90;;;;;;5075608;28;20020;-88
2022/02/07 16:09:34;;;;;;;139.82;54.03;;;2.40;99.90;;;;;;5056083;28;20115;-88
2022/02/07 16:12:08;;;;;;;121.03;49.47;;;2.40;99.90;;;;;;5072488;28;20032;-88
2022/02/07 16:14:35;;;;;;;126.43;51.88;;;2.40;99.90;;;;;;5073166;28;20390;-89
2022/02/07 16:17:01;;;;;;;127.72;55.53;;;2.40;99.90;;;;;;5072472;28;20025;-89
2022/02/07 16:19:30;;;;;;;126.10;53.60;;;2.40;99.90;;;;;;5072126;28;20076;-89
2022/02/07 16:21:56;;;;;;;138.48;55.20;;;2.40;99.90;;;;;;5055102;28;20021;-89
2022/02/07 16:24:23;;;;;;;106.88;45.45;;;2.40;99.90;;;;;;5071928;28;20032;-89
2022/02/07 16:26:50;;;;;;;79.50;39.65;;;2.40;99.90;;;;;;5071827;28;20025;-88
2022/02/07 16:29:19;;;;;;;103.20;47.20;;;2.40;99.90;;;;;;5055044;28;20025;-88
2022/02/07 16:31:45;;;;;;;102.65;46.65;;;2.30;99.90;;;;;;5071797;28;20025;-89
2022/02/07 16:34:17;;;;;;;76.40;34.97;;;2.30;99.90;;;;;;5071773;28;20120;-93
2022/02/07 16:36:54;;;;;;;90.90;41.50;;;2.30;99.90;;;;;;5055163;28;20033;-95
2022/02/07 16:39:21;;;;;;;93.10;44.25;;;2.40;99.90;;;;;;5086556;28;20044;-93
2022/02/07 16:41:49;;;;;;;85.15;40.25;;;2.40;99.90;;;;;;5075911;28;20029;-91
2022/02/07 16:50:12;;;;;;;68.47;32.72;;;2.40;99.90;;;;;;5048383;28;19928;-93
2022/02/07 16:55:51;;;;;;;81.20;34.75;;;2.40;99.90;;;;;;5062914;28;20028;-96
2022/02/07 16:58:47;;;;;;;59.00;29.05;;;2.40;99.90;;;;;;5075919;28;20056;-96
2022/02/07 17:01:15;;;;;;;55.22;26.08;;;2.40;99.90;;;;;;5074974;28;20111;-95
2022/02/07 17:04:04;;;;;;;60.15;28.27;;;2.30;99.90;;;;;;5077667;28;20020;-96
2022/02/07 17:06:40;;;;;;;56.50;29.35;;;2.20;99.90;;;;;;5078776;28;20558;-96
2022/02/07 17:09:13;;;;;;;55.85;27.33;;;2.20;99.90;;;;;;5076837;28;20036;-96
2022/02/07 17:11:47;;;;;;;53.97;28.70;;;2.10;99.90;;;;;;5077663;28;20033;-93
2022/02/07 17:14:28;;;;;;;;;;;;;;;;;;;;;
2022/02/07 17:17:02;;;;;;;44.60;23.35;;;2.10;99.90;;;;;;5076991;28;20032;-95
2022/02/07 17:19:30;;;;;;;65.82;29.60;;;2.10;99.90;;;;;;5077520;28;20027;-92
2022/02/07 17:22:16;;;;;;;56.35;27.08;;;2.00;99.90;;;;;;5077429;28;20497;-96
2022/02/07 17:24:42;;;;;;;51.35;26.35;;;2.00;99.90;;;;;;5074907;28;20534;-91
2022/02/07 17:27:10;;;;;;;53.75;24.52;;;2.00;99.90;;;;;;5074797;28;20052;-94
2022/02/07 17:29:37;;;;;;;53.42;27.13;;;1.90;99.90;;;;;;5075473;28;20024;-94
2022/02/07 17:32:06;;;;;;;64.10;28.85;;;1.90;99.90;;;;;;5074245;28;20036;-96
2022/02/07 17:34:58;;;;;;;52.60;25.13;;;1.90;99.90;;;;;;5077159;28;20024;-96
2022/02/07 17:37:35;;;;;;;;;;;;;;;;;;;;;
2022/02/07 17:40:17;;;;;;;50.88;24.83;;;1.80;99.90;;;;;;5076114;28;20055;-96
2022/02/07 17:43:00;;;;;;;48.45;22.60;;;1.80;99.90;;;;;;5074756;28;20028;-96
2022/02/07 17:45:39;;;;;;;39.80;21.08;;;1.80;99.90;;;;;;5079701;28;20070;-96
2022/02/07 17:48:18;;;;;;;41.60;21.67;;;1.80;99.90;;;;;;5072232;28;20056;-96
2022/02/07 17:54:35;;;;;;;52.38;23.55;;;1.70;99.90;;;;;;5014826;28;20065;-96
2022/02/07 17:57:19;;;;;;;47.03;22.15;;;1.70;99.90;;;;;;5073487;28;20040;-96
2022/02/07 17:59:57;;;;;;;43.35;21.40;;;1.70;99.90;;;;;;5073566;28;20250;-96
2022/02/07 18:02:40;;;;;;;52.17;27.60;;;1.70;99.90;;;;;;5073392;28;20028;-96
2022/02/07 18:05:30;;;;;;;88.75;42.13;;;1.80;99.90;;;;;;5073876;28;20074;-96
2022/02/07 18:08:18;;;;;;;;;;;;;;;;;;;;;
2022/02/07 18:10:50;;;;;;;70.75;35.55;;;1.80;99.90;;;;;;5036427;28;20040;-96
2022/02/07 18:16:45;;;;;;;50.83;25.15;;;1.90;99.90;;;;;;5034798;28;20028;-96
2022/02/07 18:19:32;;;;;;;50.53;26.17;;;1.90;99.90;;;;;;5036843;28;20120;-96
2022/02/07 18:22:11;;;;;;;57.50;28.65;;;1.90;99.90;;;;;;5032877;28;20124;-96
2022/02/07 18:25:12;;;;;;;;;;;;;;;;;;;;;
2022/02/07 18:27:48;;;;;;;52.55;24.75;;;1.90;99.90;;;;;;5027061;28;20029;-95
2022/02/07 18:30:53;;;;;;;47.50;22.58;;;1.80;99.90;;;;;;5039293;28;20037;-96
2022/02/07 18:33:37;;;;;;;45.80;23.30;;;1.80;99.90;;;;;;5075058;28;20059;-96
2022/02/07 18:36:28;;;;;;;45.88;23.17;;;1.80;99.90;;;;;;5062006;28;20020;-96
2022/02/07 18:39:11;;;;;;;80.07;37.05;;;1.80;99.90;;;;;;5063368;28;20037;-96
2022/02/07 18:47:29;;;;;;;134.68;58.15;;;1.90;99.90;;;;;;5066962;28;20492;-96
2022/02/07 18:50:17;;;;;;;69.75;33.42;;;1.90;99.90;;;;;;5073870;28;20032;-96
2022/02/07 18:53:13;;;;;;;99.38;40.67;;;1.90;99.90;;;;;;5075172;28;20051;-96
2022/02/07 18:56:16;;;;;;;93.70;40.28;;;1.90;99.90;;;;;;5069021;28;20058;-96
2022/02/07 18:59:15;;;;;;;97.13;44.60;;;1.90;99.90;;;;;;5072891;28;20139;-96
2022/02/07 19:01:52;;;;;;;75.25;33.45;;;1.90;99.90;;;;;;5074282;28;20614;-96
2022/02/07 19:07:46;;;;;;;39.92;21.23;;;2.00;99.90;;;;;;5075546;28;20486;-96
2022/02/07 19:10:17;;;;;;;48.85;22.88;;;2.00;99.90;;;;;;5074033;28;20074;-95
2022/02/07 19:16:47;;;;;;;41.20;20.42;;;2.00;99.90;;;;;;5083353;28;20023;-96
2022/02/07 19:22:41;;;;;;;52.92;25.63;;;2.00;99.90;;;;;;5002758;28;20053;-96
2022/02/07 19:38:53;;;;;;;40.95;22.23;;;2.10;99.90;;;;;;4969204;28;20248;-96
2022/02/07 19:42:12;;;;;;;;;;;;;;;;;;;;;
2022/02/07 20:44:04;;;;;;;43.45;22.23;;;2.10;99.90;;;;;;5320208;23;20055;-96
2022/02/07 20:47:18;;;;;;;48.72;22.73;;;2.10;99.90;;;;;;4933079;29;20043;-96
2022/02/07 20:50:35;;;;;;;;;;;;;;;;;;;;;
2022/02/07 20:53:38;;;;;;;68.75;30.08;;;2.10;99.90;;;;;;4987464;28;20058;-96
2022/02/07 21:00:34;;;;;;;60.30;28.50;;;1.90;99.90;;;;;;4989279;28;20038;-96
2022/02/07 21:42:28;;;;;;;95.20;38.72;;;1.90;99.90;;;;;;4990624;28;20054;-96
2022/02/07 21:55:35;;;;;;;113.63;51.72;;;1.90;99.90;;;;;;4838527;29;20034;-96
2022/02/07 21:59:09;;;;;;;106.15;50.22;;;2.00;99.90;;;;;;4864667;29;20033;-96
2022/02/07 22:09:30;;;;;;;139.07;56.45;;;2.00;99.90;;;;;;4842705;29;20571;-96
2022/02/07 22:32:09;;;;;;;143.63;58.10;;;2.10;99.90;;;;;;4856936;29;20072;-96
2022/02/07 22:34:56;;;;;;;;;;;;;;;;;;;;;
2022/02/07 22:38:10;;;;;;;118.07;51.28;;;2.10;99.90;;;;;;4885190;29;20556;-96
2022/02/07 22:41:02;;;;;;;94.25;42.85;;;2.10;99.90;;;;;;4885743;29;20108;-96
2022/02/07 22:43:34;;;;;;;82.07;39.42;;;2.10;99.90;;;;;;4940970;28;20031;-96
2022/02/07 22:46:19;;;;;;;64.50;32.33;;;2.20;99.90;;;;;;4959034;28;20046;-96
2022/02/07 22:48:51;;;;;;;50.85;25.00;;;2.10;99.90;;;;;;4918831;29;20044;-96
2022/02/07 22:51:32;;;;;;;39.50;20.00;;;2.20;99.90;;;;;;4899248;29;20093;-96
2022/02/07 22:54:16;;;;;;;;;;;;;;;;;;;;;
2022/02/07 23:13:17;;;;;;;80.55;39.13;;;2.00;99.90;;;;;;4907649;29;20032;-96
2022/02/07 23:16:23;;;;;;;81.40;38.95;;;1.90;99.90;;;;;;4906356;29;20029;-96
2022/02/07 23:19:29;;;;;;;71.20;37.40;;;1.90;99.90;;;;;;4925896;29;20028;-96
2022/02/07 23:43:49;;;;;;;57.03;26.48;;;1.90;99.90;;;;;;4906176;29;20035;-96
2022/02/07 23:46:45;;;;;;;51.55;24.48;;;1.90;99.90;;;;;;4921759;29;20088;-96
